Glencoe, Alabama
Current Conditions -  °F | °C
As of 8:35 PM on Friday 21 Nov 2014 (Local Time) from KGAD Reporting Station
Clear Clear  
Wind Chill: 42°   Ceiling: Unl
Heat Index: 45°   Visibility: 10mi
Dew Point: 30°   Wind: 5mph
Humidity: 57%   Direction: 30°NNE
Pressure: 30.4"   Gusts: NA
Location:  33.9283°N, 85.9257°W
Report Text: KGAD 220235Z 03004KT 10SM CLR 07/M01 A3040 RMK AO1
Loading
Personal Weather Stations






























Interactive Weather Map New forecast layout! Learn more

10-Day Weather Forecast

Advertisements
Track Severe Weather on mobile